sensor_id;sensor_type;location;lat;lon;timestamp;P1;durP1;ratioP1;P2;durP2;ratioP2
70757;SDS011;59316;52.964;7.102;2022-12-20T00:01:48;5.95;;;3.88;;
70757;SDS011;59316;52.964;7.102;2022-12-20T00:06:50;7.05;;;3.80;;
70757;SDS011;59316;52.964;7.102;2022-12-20T00:11:52;6.60;;;3.92;;
70757;SDS011;59316;52.964;7.102;2022-12-20T00:16:54;5.65;;;3.72;;
70757;SDS011;59316;52.964;7.102;2022-12-20T00:21:56;8.50;;;4.00;;
70757;SDS011;59316;52.964;7.102;2022-12-20T00:26:57;7.00;;;3.92;;
70757;SDS011;59316;52.964;7.102;2022-12-20T00:31:59;8.13;;;3.80;;
70757;SDS011;59316;52.964;7.102;2022-12-20T00:37:01;5.80;;;4.20;;
70757;SDS011;59316;52.964;7.102;2022-12-20T00:42:03;5.93;;;3.63;;
70757;SDS011;59316;52.964;7.102;2022-12-20T00:47:05;5.45;;;3.75;;
70757;SDS011;59316;52.964;7.102;2022-12-20T00:52:07;8.98;;;4.05;;
70757;SDS011;59316;52.964;7.102;2022-12-20T00:57:09;8.95;;;3.75;;
70757;SDS011;59316;52.964;7.102;2022-12-20T01:02:11;6.13;;;3.10;;
70757;SDS011;59316;52.964;7.102;2022-12-20T01:07:13;7.88;;;3.38;;
70757;SDS011;59316;52.964;7.102;2022-12-20T01:12:15;7.07;;;3.50;;
70757;SDS011;59316;52.964;7.102;2022-12-20T01:17:17;4.57;;;2.95;;
70757;SDS011;59316;52.964;7.102;2022-12-20T01:22:19;6.75;;;3.22;;
70757;SDS011;59316;52.964;7.102;2022-12-20T01:27:20;6.75;;;3.05;;
70757;SDS011;59316;52.964;7.102;2022-12-20T01:32:22;4.55;;;3.13;;
70757;SDS011;59316;52.964;7.102;2022-12-20T01:37:24;7.57;;;3.10;;
70757;SDS011;59316;52.964;7.102;2022-12-20T01:42:26;5.30;;;3.05;;
70757;SDS011;59316;52.964;7.102;2022-12-20T01:47:29;5.70;;;3.25;;
70757;SDS011;59316;52.964;7.102;2022-12-20T01:52:38;5.93;;;3.10;;
70757;SDS011;59316;52.964;7.102;2022-12-20T01:57:43;5.50;;;3.22;;
70757;SDS011;59316;52.964;7.102;2022-12-20T02:02:47;7.38;;;3.20;;
70757;SDS011;59316;52.964;7.102;2022-12-20T02:12:54;5.28;;;3.25;;
70757;SDS011;59316;52.964;7.102;2022-12-20T02:28:11;5.35;;;2.63;;
70757;SDS011;59316;52.964;7.102;2022-12-20T02:33:16;6.63;;;2.70;;
70757;SDS011;59316;52.964;7.102;2022-12-20T02:38:30;3.70;;;2.70;;
70757;SDS011;59316;52.964;7.102;2022-12-20T02:43:33;5.22;;;2.75;;
70757;SDS011;59316;52.964;7.102;2022-12-20T02:48:36;4.47;;;2.88;;
70757;SDS011;59316;52.964;7.102;2022-12-20T02:53:39;5.40;;;2.60;;
70757;SDS011;59316;52.964;7.102;2022-12-20T02:58:50;5.82;;;3.10;;
70757;SDS011;59316;52.964;7.102;2022-12-20T03:03:56;6.30;;;2.90;;
70757;SDS011;59316;52.964;7.102;2022-12-20T03:08:58;5.82;;;3.15;;
70757;SDS011;59316;52.964;7.102;2022-12-20T03:14:04;5.18;;;2.80;;
70757;SDS011;59316;52.964;7.102;2022-12-20T03:19:05;6.28;;;3.10;;
70757;SDS011;59316;52.964;7.102;2022-12-20T03:24:07;5.82;;;3.40;;
70757;SDS011;59316;52.964;7.102;2022-12-20T03:29:09;7.25;;;3.65;;
70757;SDS011;59316;52.964;7.102;2022-12-20T03:34:12;6.55;;;3.78;;
70757;SDS011;59316;52.964;7.102;2022-12-20T03:39:14;5.40;;;3.90;;
70757;SDS011;59316;52.964;7.102;2022-12-20T03:44:16;5.50;;;3.30;;
70757;SDS011;59316;52.964;7.102;2022-12-20T03:49:18;6.47;;;3.88;;
70757;SDS011;59316;52.964;7.102;2022-12-20T03:54:23;5.78;;;3.40;;
70757;SDS011;59316;52.964;7.102;2022-12-20T03:59:57;7.13;;;3.77;;
70757;SDS011;59316;52.964;7.102;2022-12-20T04:04:59;5.80;;;3.58;;
70757;SDS011;59316;52.964;7.102;2022-12-20T04:10:01;7.50;;;3.03;;
70757;SDS011;59316;52.964;7.102;2022-12-20T04:15:04;5.90;;;3.58;;
70757;SDS011;59316;52.964;7.102;2022-12-20T04:20:07;8.00;;;3.90;;
70757;SDS011;59316;52.964;7.102;2022-12-20T04:25:11;8.02;;;3.67;;
70757;SDS011;59316;52.964;7.102;2022-12-20T04:30:14;7.63;;;4.30;;
70757;SDS011;59316;52.964;7.102;2022-12-20T04:35:16;7.13;;;3.90;;
70757;SDS011;59316;52.964;7.102;2022-12-20T04:40:18;9.95;;;4.28;;
70757;SDS011;59316;52.964;7.102;2022-12-20T04:45:27;7.28;;;3.90;;
70757;SDS011;59316;52.964;7.102;2022-12-20T04:50:29;7.15;;;4.00;;
70757;SDS011;59316;52.964;7.102;2022-12-20T04:55:35;8.57;;;4.13;;
70757;SDS011;59316;52.964;7.102;2022-12-20T05:00:38;6.03;;;4.15;;
70757;SDS011;59316;52.964;7.102;2022-12-20T05:05:53;8.68;;;4.13;;
70757;SDS011;59316;52.964;7.102;2022-12-20T05:10:56;6.07;;;3.60;;
70757;SDS011;59316;52.964;7.102;2022-12-20T05:15:58;5.32;;;3.70;;
70757;SDS011;59316;52.964;7.102;2022-12-20T05:21:04;7.68;;;4.03;;
70757;SDS011;59316;52.964;7.102;2022-12-20T05:26:07;7.07;;;3.83;;
70757;SDS011;59316;52.964;7.102;2022-12-20T05:31:10;5.07;;;3.40;;
70757;SDS011;59316;52.964;7.102;2022-12-20T05:36:12;5.40;;;3.58;;
70757;SDS011;59316;52.964;7.102;2022-12-20T05:41:14;5.63;;;3.33;;
70757;SDS011;59316;52.964;7.102;2022-12-20T05:46:18;6.43;;;2.83;;
70757;SDS011;59316;52.964;7.102;2022-12-20T05:51:32;6.75;;;3.80;;
70757;SDS011;59316;52.964;7.102;2022-12-20T05:56:47;5.88;;;3.25;;
70757;SDS011;59316;52.964;7.102;2022-12-20T06:01:52;5.03;;;3.25;;
70757;SDS011;59316;52.964;7.102;2022-12-20T06:06:56;6.93;;;4.28;;
70757;SDS011;59316;52.964;7.102;2022-12-20T06:11:58;7.38;;;3.60;;
70757;SDS011;59316;52.964;7.102;2022-12-20T06:22:04;4.65;;;3.13;;
70757;SDS011;59316;52.964;7.102;2022-12-20T06:27:14;5.72;;;3.03;;
70757;SDS011;59316;52.964;7.102;2022-12-20T06:32:17;7.93;;;4.07;;
70757;SDS011;59316;52.964;7.102;2022-12-20T06:37:19;5.03;;;3.30;;
70757;SDS011;59316;52.964;7.102;2022-12-20T06:42:21;5.00;;;3.60;;
70757;SDS011;59316;52.964;7.102;2022-12-20T06:47:24;6.80;;;3.10;;
70757;SDS011;59316;52.964;7.102;2022-12-20T06:52:27;5.82;;;3.40;;
70757;SDS011;59316;52.964;7.102;2022-12-20T06:57:30;5.70;;;3.20;;
70757;SDS011;59316;52.964;7.102;2022-12-20T07:02:32;7.60;;;3.33;;
70757;SDS011;59316;52.964;7.102;2022-12-20T07:07:35;7.22;;;3.78;;
70757;SDS011;59316;52.964;7.102;2022-12-20T07:12:46;8.07;;;4.00;;
70757;SDS011;59316;52.964;7.102;2022-12-20T07:17:49;7.97;;;3.90;;
70757;SDS011;59316;52.964;7.102;2022-12-20T07:22:52;7.53;;;3.93;;
70757;SDS011;59316;52.964;7.102;2022-12-20T07:27:54;9.23;;;4.57;;
70757;SDS011;59316;52.964;7.102;2022-12-20T07:32:57;8.00;;;4.80;;
70757;SDS011;59316;52.964;7.102;2022-12-20T07:37:59;11.20;;;5.00;;
70757;SDS011;59316;52.964;7.102;2022-12-20T07:43:01;9.17;;;4.80;;
70757;SDS011;59316;52.964;7.102;2022-12-20T07:48:04;9.30;;;5.17;;
70757;SDS011;59316;52.964;7.102;2022-12-20T07:53:13;8.82;;;5.22;;
70757;SDS011;59316;52.964;7.102;2022-12-20T07:58:16;7.73;;;5.70;;
70757;SDS011;59316;52.964;7.102;2022-12-20T08:03:20;7.72;;;5.40;;
70757;SDS011;59316;52.964;7.102;2022-12-20T08:08:32;8.60;;;5.45;;
70757;SDS011;59316;52.964;7.102;2022-12-20T08:13:37;10.15;;;5.78;;
70757;SDS011;59316;52.964;7.102;2022-12-20T08:18:47;11.30;;;5.00;;
70757;SDS011;59316;52.964;7.102;2022-12-20T08:23:49;8.90;;;4.30;;
70757;SDS011;59316;52.964;7.102;2022-12-20T08:28:52;6.77;;;4.30;;
70757;SDS011;59316;52.964;7.102;2022-12-20T08:33:55;7.90;;;4.60;;
70757;SDS011;59316;52.964;7.102;2022-12-20T08:39:00;10.03;;;4.47;;
70757;SDS011;59316;52.964;7.102;2022-12-20T08:44:07;7.90;;;4.53;;
70757;SDS011;59316;52.964;7.102;2022-12-20T08:49:09;6.83;;;4.10;;
70757;SDS011;59316;52.964;7.102;2022-12-20T08:54:11;6.13;;;4.13;;
70757;SDS011;59316;52.964;7.102;2022-12-20T08:59:14;6.70;;;3.90;;
70757;SDS011;59316;52.964;7.102;2022-12-20T09:04:16;6.47;;;3.77;;
70757;SDS011;59316;52.964;7.102;2022-12-20T09:09:19;9.47;;;3.30;;
70757;SDS011;59316;52.964;7.102;2022-12-20T09:14:22;3.80;;;2.73;;
70757;SDS011;59316;52.964;7.102;2022-12-20T09:19:24;6.53;;;3.40;;
70757;SDS011;59316;52.964;7.102;2022-12-20T09:24:27;3.97;;;2.93;;
70757;SDS011;59316;52.964;7.102;2022-12-20T09:29:29;4.47;;;2.77;;
70757;SDS011;59316;52.964;7.102;2022-12-20T09:34:36;5.88;;;2.83;;
70757;SDS011;59316;52.964;7.102;2022-12-20T09:39:39;5.70;;;2.60;;
70757;SDS011;59316;52.964;7.102;2022-12-20T09:44:41;4.07;;;2.73;;
70757;SDS011;59316;52.964;7.102;2022-12-20T09:49:45;4.35;;;3.03;;
70757;SDS011;59316;52.964;7.102;2022-12-20T10:00:19;5.55;;;2.67;;
70757;SDS011;59316;52.964;7.102;2022-12-20T10:05:29;9.50;;;3.40;;
70757;SDS011;59316;52.964;7.102;2022-12-20T10:21:18;4.28;;;2.60;;
70757;SDS011;59316;52.964;7.102;2022-12-20T10:26:28;8.55;;;2.92;;
70757;SDS011;59316;52.964;7.102;2022-12-20T10:36:34;7.95;;;3.50;;
70757;SDS011;59316;52.964;7.102;2022-12-20T10:46:44;6.57;;;3.85;;
70757;SDS011;59316;52.964;7.102;2022-12-20T10:51:53;7.70;;;3.85;;
70757;SDS011;59316;52.964;7.102;2022-12-20T10:57:02;6.45;;;4.05;;
70757;SDS011;59316;52.964;7.102;2022-12-20T11:02:24;8.20;;;4.15;;
70757;SDS011;59316;52.964;7.102;2022-12-20T11:07:51;9.23;;;4.30;;
70757;SDS011;59316;52.964;7.102;2022-12-20T11:13:21;6.53;;;4.43;;
70757;SDS011;59316;52.964;7.102;2022-12-20T11:23:44;9.70;;;4.75;;
70757;SDS011;59316;52.964;7.102;2022-12-20T11:35:21;6.50;;;3.40;;
70757;SDS011;59316;52.964;7.102;2022-12-20T11:56:06;6.35;;;3.50;;
70757;SDS011;59316;52.964;7.102;2022-12-20T12:01:13;5.13;;;3.67;;
70757;SDS011;59316;52.964;7.102;2022-12-20T12:11:30;6.20;;;3.50;;
70757;SDS011;59316;52.964;7.102;2022-12-20T12:16:56;5.43;;;3.50;;
70757;SDS011;59316;52.964;7.102;2022-12-20T12:22:12;6.68;;;3.97;;
70757;SDS011;59316;52.964;7.102;2022-12-20T12:27:22;6.55;;;4.03;;
70757;SDS011;59316;52.964;7.102;2022-12-20T12:37:47;9.00;;;4.20;;
70757;SDS011;59316;52.964;7.102;2022-12-20T12:53:52;8.57;;;4.72;;
70757;SDS011;59316;52.964;7.102;2022-12-20T13:04:09;11.10;;;5.20;;
70757;SDS011;59316;52.964;7.102;2022-12-20T13:19:35;9.90;;;4.83;;
70757;SDS011;59316;52.964;7.102;2022-12-20T13:35:27;7.43;;;5.15;;
70757;SDS011;59316;52.964;7.102;2022-12-20T13:45:42;10.02;;;5.82;;
70757;SDS011;59316;52.964;7.102;2022-12-20T13:50:48;10.52;;;5.85;;
70757;SDS011;59316;52.964;7.102;2022-12-20T13:55:52;11.18;;;5.95;;
70757;SDS011;59316;52.964;7.102;2022-12-20T14:01:06;10.88;;;6.40;;
70757;SDS011;59316;52.964;7.102;2022-12-20T14:06:14;12.70;;;6.38;;
70757;SDS011;59316;52.964;7.102;2022-12-20T14:11:25;8.77;;;5.75;;
70757;SDS011;59316;52.964;7.102;2022-12-20T14:16:29;9.18;;;6.22;;
70757;SDS011;59316;52.964;7.102;2022-12-20T14:21:34;10.25;;;6.03;;
70757;SDS011;59316;52.964;7.102;2022-12-20T14:26:40;10.80;;;6.55;;
70757;SDS011;59316;52.964;7.102;2022-12-20T14:31:46;10.00;;;6.78;;
70757;SDS011;59316;52.964;7.102;2022-12-20T14:36:50;12.30;;;7.20;;
70757;SDS011;59316;52.964;7.102;2022-12-20T14:52:19;14.10;;;6.95;;
70757;SDS011;59316;52.964;7.102;2022-12-20T14:57:31;10.57;;;7.50;;
70757;SDS011;59316;52.964;7.102;2022-12-20T15:03:25;13.55;;;7.93;;
70757;SDS011;59316;52.964;7.102;2022-12-20T15:13:20;13.52;;;7.63;;
70757;SDS011;59316;52.964;7.102;2022-12-20T15:18:24;10.23;;;7.70;;
70757;SDS011;59316;52.964;7.102;2022-12-20T15:23:26;14.13;;;8.40;;
70757;SDS011;59316;52.964;7.102;2022-12-20T15:28:29;14.77;;;8.77;;
70757;SDS011;59316;52.964;7.102;2022-12-20T15:33:31;12.93;;;8.13;;
70757;SDS011;59316;52.964;7.102;2022-12-20T15:38:35;12.50;;;8.23;;
70757;SDS011;59316;52.964;7.102;2022-12-20T15:44:10;14.25;;;8.82;;
70757;SDS011;59316;52.964;7.102;2022-12-20T15:49:16;14.15;;;9.05;;
70757;SDS011;59316;52.964;7.102;2022-12-20T15:54:29;13.35;;;8.35;;
70757;SDS011;59316;52.964;7.102;2022-12-20T15:59:33;12.75;;;8.48;;
70757;SDS011;59316;52.964;7.102;2022-12-20T16:04:55;13.75;;;8.15;;
70757;SDS011;59316;52.964;7.102;2022-12-20T16:09:58;12.17;;;8.23;;
70757;SDS011;59316;52.964;7.102;2022-12-20T16:15:00;11.87;;;8.00;;
70757;SDS011;59316;52.964;7.102;2022-12-20T16:20:03;11.90;;;8.43;;
70757;SDS011;59316;52.964;7.102;2022-12-20T16:30:21;17.55;;;8.77;;
70757;SDS011;59316;52.964;7.102;2022-12-20T16:35:26;16.25;;;9.15;;
70757;SDS011;59316;52.964;7.102;2022-12-20T16:40:31;15.35;;;9.43;;
70757;SDS011;59316;52.964;7.102;2022-12-20T16:50:36;15.25;;;9.63;;
70757;SDS011;59316;52.964;7.102;2022-12-20T16:55:38;17.77;;;10.47;;
70757;SDS011;59316;52.964;7.102;2022-12-20T17:00:41;16.85;;;10.88;;
70757;SDS011;59316;52.964;7.102;2022-12-20T17:05:43;18.80;;;10.15;;
70757;SDS011;59316;52.964;7.102;2022-12-20T17:10:46;16.23;;;10.37;;
70757;SDS011;59316;52.964;7.102;2022-12-20T17:15:48;16.10;;;10.20;;
70757;SDS011;59316;52.964;7.102;2022-12-20T17:20:51;16.43;;;10.63;;
70757;SDS011;59316;52.964;7.102;2022-12-20T17:25:53;20.30;;;11.93;;
70757;SDS011;59316;52.964;7.102;2022-12-20T17:30:56;19.93;;;12.33;;
70757;SDS011;59316;52.964;7.102;2022-12-20T17:36:05;21.65;;;12.40;;
70757;SDS011;59316;52.964;7.102;2022-12-20T17:41:12;23.77;;;13.27;;
70757;SDS011;59316;52.964;7.102;2022-12-20T17:46:24;21.35;;;12.98;;
70757;SDS011;59316;52.964;7.102;2022-12-20T17:51:28;22.88;;;12.80;;
70757;SDS011;59316;52.964;7.102;2022-12-20T17:56:32;27.77;;;14.45;;
70757;SDS011;59316;52.964;7.102;2022-12-20T18:01:36;27.80;;;15.30;;
70757;SDS011;59316;52.964;7.102;2022-12-20T18:06:39;29.55;;;14.80;;
70757;SDS011;59316;52.964;7.102;2022-12-20T18:11:43;26.83;;;14.75;;
70757;SDS011;59316;52.964;7.102;2022-12-20T18:16:45;27.27;;;15.68;;
70757;SDS011;59316;52.964;7.102;2022-12-20T18:21:48;27.10;;;14.43;;
70757;SDS011;59316;52.964;7.102;2022-12-20T18:26:51;28.42;;;14.23;;
70757;SDS011;59316;52.964;7.102;2022-12-20T18:31:53;28.13;;;13.83;;
70757;SDS011;59316;52.964;7.102;2022-12-20T18:36:56;25.50;;;13.60;;
70757;SDS011;59316;52.964;7.102;2022-12-20T18:41:58;23.73;;;13.03;;
70757;SDS011;59316;52.964;7.102;2022-12-20T18:47:01;22.90;;;12.80;;
70757;SDS011;59316;52.964;7.102;2022-12-20T18:52:03;24.02;;;13.35;;
70757;SDS011;59316;52.964;7.102;2022-12-20T18:57:06;21.35;;;13.02;;
70757;SDS011;59316;52.964;7.102;2022-12-20T19:02:10;22.23;;;12.00;;
70757;SDS011;59316;52.964;7.102;2022-12-20T19:07:13;23.35;;;13.07;;
70757;SDS011;59316;52.964;7.102;2022-12-20T19:12:15;25.63;;;12.57;;
70757;SDS011;59316;52.964;7.102;2022-12-20T19:17:18;22.70;;;12.27;;
70757;SDS011;59316;52.964;7.102;2022-12-20T19:22:20;23.27;;;12.57;;
70757;SDS011;59316;52.964;7.102;2022-12-20T19:27:23;21.97;;;11.67;;
70757;SDS011;59316;52.964;7.102;2022-12-20T19:32:25;23.93;;;12.43;;
70757;SDS011;59316;52.964;7.102;2022-12-20T19:37:27;23.10;;;11.90;;
70757;SDS011;59316;52.964;7.102;2022-12-20T19:42:36;24.90;;;11.60;;
70757;SDS011;59316;52.964;7.102;2022-12-20T19:47:38;22.37;;;11.43;;
70757;SDS011;59316;52.964;7.102;2022-12-20T19:52:41;24.70;;;13.13;;
70757;SDS011;59316;52.964;7.102;2022-12-20T19:57:43;26.53;;;13.57;;
70757;SDS011;59316;52.964;7.102;2022-12-20T20:02:46;25.43;;;12.47;;
70757;SDS011;59316;52.964;7.102;2022-12-20T20:07:48;27.63;;;12.95;;
70757;SDS011;59316;52.964;7.102;2022-12-20T20:12:51;24.53;;;12.57;;
70757;SDS011;59316;52.964;7.102;2022-12-20T20:17:53;26.43;;;12.90;;
70757;SDS011;59316;52.964;7.102;2022-12-20T20:22:56;26.23;;;12.75;;
70757;SDS011;59316;52.964;7.102;2022-12-20T20:27:58;28.93;;;13.87;;
70757;SDS011;59316;52.964;7.102;2022-12-20T20:33:01;23.87;;;12.47;;
70757;SDS011;59316;52.964;7.102;2022-12-20T20:38:03;28.17;;;13.37;;
70757;SDS011;59316;52.964;7.102;2022-12-20T20:43:06;31.52;;;14.52;;
70757;SDS011;59316;52.964;7.102;2022-12-20T20:48:09;34.20;;;15.77;;
70757;SDS011;59316;52.964;7.102;2022-12-20T20:53:12;28.63;;;13.68;;
70757;SDS011;59316;52.964;7.102;2022-12-20T20:58:14;32.65;;;14.30;;
70757;SDS011;59316;52.964;7.102;2022-12-20T21:03:17;29.60;;;14.13;;
70757;SDS011;59316;52.964;7.102;2022-12-20T21:08:21;31.92;;;14.48;;
70757;SDS011;59316;52.964;7.102;2022-12-20T21:13:23;33.83;;;14.50;;
70757;SDS011;59316;52.964;7.102;2022-12-20T21:18:26;31.90;;;14.60;;
70757;SDS011;59316;52.964;7.102;2022-12-20T21:23:28;34.63;;;15.47;;
70757;SDS011;59316;52.964;7.102;2022-12-20T21:28:31;30.50;;;14.13;;
70757;SDS011;59316;52.964;7.102;2022-12-20T21:33:33;31.23;;;13.97;;
70757;SDS011;59316;52.964;7.102;2022-12-20T21:38:36;37.27;;;14.47;;
70757;SDS011;59316;52.964;7.102;2022-12-20T21:43:38;30.00;;;13.57;;
70757;SDS011;59316;52.964;7.102;2022-12-20T21:48:41;29.30;;;14.23;;
70757;SDS011;59316;52.964;7.102;2022-12-20T21:58:51;39.67;;;14.73;;
70757;SDS011;59316;52.964;7.102;2022-12-20T22:03:56;30.08;;;13.15;;
70757;SDS011;59316;52.964;7.102;2022-12-20T22:09:01;34.55;;;13.20;;
70757;SDS011;59316;52.964;7.102;2022-12-20T22:14:04;34.00;;;14.27;;
70757;SDS011;59316;52.964;7.102;2022-12-20T22:19:08;27.63;;;13.00;;
70757;SDS011;59316;52.964;7.102;2022-12-20T22:24:14;32.75;;;13.43;;
70757;SDS011;59316;52.964;7.102;2022-12-20T22:29:16;37.37;;;14.90;;
70757;SDS011;59316;52.964;7.102;2022-12-20T22:34:19;31.97;;;13.20;;
70757;SDS011;59316;52.964;7.102;2022-12-20T22:39:21;33.67;;;14.17;;
70757;SDS011;59316;52.964;7.102;2022-12-20T22:44:24;35.97;;;12.70;;
70757;SDS011;59316;52.964;7.102;2022-12-20T22:49:26;36.07;;;14.50;;
70757;SDS011;59316;52.964;7.102;2022-12-20T22:54:28;39.07;;;15.83;;
70757;SDS011;59316;52.964;7.102;2022-12-20T22:59:31;48.87;;;16.97;;
70757;SDS011;59316;52.964;7.102;2022-12-20T23:04:33;44.03;;;16.77;;
70757;SDS011;59316;52.964;7.102;2022-12-20T23:09:36;51.58;;;17.25;;
70757;SDS011;59316;52.964;7.102;2022-12-20T23:14:38;136.43;;;16.07;;
70757;SDS011;59316;52.964;7.102;2022-12-20T23:19:41;218.70;;;17.30;;
70757;SDS011;59316;52.964;7.102;2022-12-20T23:24:43;41.40;;;15.00;;
70757;SDS011;59316;52.964;7.102;2022-12-20T23:29:47;63.13;;;13.75;;
70757;SDS011;59316;52.964;7.102;2022-12-20T23:34:50;51.43;;;16.90;;
70757;SDS011;59316;52.964;7.102;2022-12-20T23:39:52;47.30;;;13.80;;
70757;SDS011;59316;52.964;7.102;2022-12-20T23:44:54;44.03;;;12.37;;
70757;SDS011;59316;52.964;7.102;2022-12-20T23:49:57;196.03;;;14.93;;
70757;SDS011;59316;52.964;7.102;2022-12-20T23:54:59;62.43;;;16.57;;
